メインページ
METAR-TAF:

METAR-TAF

空港 :

Elk Valley

Sparwood, ブリティッシュコロンビア州, カナダ

緯度: 49-45N, 経度: 114-53W, 海抜: 1138m

現時点の気象観測

当レポートは10時間2分前の01:00(UTC)に作成
南西の風 5kt、南/南東から西の間で変化する
気温 27°C
湿度 28%
気圧 1019 hPa
視程: 32.2km
高度8000ftの雲はほとんどない
高度26000ftの雲はほとんどない

METAR: CWSW 050100Z 23005KT 150V280 20SM FEW080 FEW260 27/07 A3008 RMK CF1CI1 CF TR CI TR LAST STFD OBS/NXT 051300Z SLP176 DENSITY ALT 5900FT

時間: 05:02 (11:02 UTC)


TAF: 見つかりません

4,000以上の空港の気象観測と天気予報(METAR報とTAF報)

利用可能な観測所は地図上に黄色い丸と赤い丸で示す。

丸の上にカーソルを重ねると観測所名を参照できる。

次にクリックすると気象観測と天気予報を参照できる。

マップの切り替え:黒色「×」印の緑ボタンをクリックして拡大、「-」印の緑ボタンをクリックして縮小、緑色の三角印をクリックして隣りの地図に切り替え


METAR-TAF: